Flight Briefing for CMB841

Departure Arrival
Norfolk Naval Station (Chambers Field) (KNGU)
Click to view FAA NOTAMS
Naval Station Rota (LERT)
Click to view FAA NOTAMS
Departure Time Arrival Time
N/A N/A
Aircraft Distance
B757-200SF 3288nm
Departure METAR Arrival METAR
KNGU 271059Z 32005KT 9SM FEW060 BKN110 BKN300 24/21 A2994 RMK AO2 SLP137 T02390211 LERT 271100Z 26007KT 220V290 CAVOK 25/13 Q1013 NOSIG
Suggested Route
ATLIC AR9 ZIBUT N3960 4055N N4050 N4040 4035N FRS LENSI T25 GUNTI UZ21 BUSEN A44 ESP A5 VFA W1 PIREN


View recent IFR Routes data
Notes
USTRANSCOM CONTRACT FLIGHT | PAYLOAD RESTRICTED | ETOPS

Charts and Procedures

Charts for KNGU
No chart available
Charts for LERT
No chart available

Windy.com Weather Map